sensor_id;sensor_type;location;lat;lon;timestamp;temperature;humidity
44229;DHT22;29904;51.058;5.378;2023-09-19T00:00:38;15.70;99.90
44229;DHT22;29904;51.058;5.378;2023-09-19T00:03:06;15.60;99.90
44229;DHT22;29904;51.058;5.378;2023-09-19T00:05:34;15.60;99.90
44229;DHT22;29904;51.058;5.378;2023-09-19T00:08:03;15.60;99.90
44229;DHT22;29904;51.058;5.378;2023-09-19T00:10:30;15.60;99.90
44229;DHT22;29904;51.058;5.378;2023-09-19T00:12:58;15.50;99.90
44229;DHT22;29904;51.058;5.378;2023-09-19T00:15:38;15.50;99.90
44229;DHT22;29904;51.058;5.378;2023-09-19T00:18:04;15.50;99.90
44229;DHT22;29904;51.058;5.378;2023-09-19T00:20:36;15.50;99.90
44229;DHT22;29904;51.058;5.378;2023-09-19T00:23:02;15.50;99.90
44229;DHT22;29904;51.058;5.378;2023-09-19T00:25:30;15.50;99.90
44229;DHT22;29904;51.058;5.378;2023-09-19T00:27:57;15.50;99.90
44229;DHT22;29904;51.058;5.378;2023-09-19T00:30:23;15.50;99.90
44229;DHT22;29904;51.058;5.378;2023-09-19T00:32:50;15.50;99.90
44229;DHT22;29904;51.058;5.378;2023-09-19T00:35:23;15.50;99.90
44229;DHT22;29904;51.058;5.378;2023-09-19T00:37:52;15.50;99.90
44229;DHT22;29904;51.058;5.378;2023-09-19T00:40:18;15.50;99.90
44229;DHT22;29904;51.058;5.378;2023-09-19T00:42:48;15.50;99.90
44229;DHT22;29904;51.058;5.378;2023-09-19T00:45:15;15.50;99.90
44229;DHT22;29904;51.058;5.378;2023-09-19T00:47:47;15.50;99.90
44229;DHT22;29904;51.058;5.378;2023-09-19T00:50:17;15.50;99.90
44229;DHT22;29904;51.058;5.378;2023-09-19T00:52:44;15.50;99.90
44229;DHT22;29904;51.058;5.378;2023-09-19T00:55:11;15.50;99.90
44229;DHT22;29904;51.058;5.378;2023-09-19T00:57:41;15.50;99.90
44229;DHT22;29904;51.058;5.378;2023-09-19T01:00:08;15.50;99.90
44229;DHT22;29904;51.058;5.378;2023-09-19T01:02:44;15.50;99.90
44229;DHT22;29904;51.058;5.378;2023-09-19T01:05:10;15.50;99.90
44229;DHT22;29904;51.058;5.378;2023-09-19T01:07:36;15.50;99.90
44229;DHT22;29904;51.058;5.378;2023-09-19T01:10:07;15.40;99.90
44229;DHT22;29904;51.058;5.378;2023-09-19T01:15:31;15.40;99.90
44229;DHT22;29904;51.058;5.378;2023-09-19T01:18:27;15.40;99.90
44229;DHT22;29904;51.058;5.378;2023-09-19T01:29:33;15.30;99.90
44229;DHT22;29904;51.058;5.378;2023-09-19T01:32:05;15.30;99.90
44229;DHT22;29904;51.058;5.378;2023-09-19T01:34:54;15.20;99.90
44229;DHT22;29904;51.058;5.378;2023-09-19T01:37:23;15.20;99.90
44229;DHT22;29904;51.058;5.378;2023-09-19T01:39:57;15.20;99.90
44229;DHT22;29904;51.058;5.378;2023-09-19T01:47:55;15.20;99.90
44229;DHT22;29904;51.058;5.378;2023-09-19T01:53:10;15.10;99.90
44229;DHT22;29904;51.058;5.378;2023-09-19T01:55:45;15.10;99.90
44229;DHT22;29904;51.058;5.378;2023-09-19T01:58:35;15.10;99.90
44229;DHT22;29904;51.058;5.378;2023-09-19T02:01:04;15.00;99.90
44229;DHT22;29904;51.058;5.378;2023-09-19T02:03:31;15.00;99.90
44229;DHT22;29904;51.058;5.378;2023-09-19T02:05:59;15.00;99.90
44229;DHT22;29904;51.058;5.378;2023-09-19T02:08:24;15.00;99.90
44229;DHT22;29904;51.058;5.378;2023-09-19T02:10:53;15.00;99.90
44229;DHT22;29904;51.058;5.378;2023-09-19T02:13:20;14.90;99.90
44229;DHT22;29904;51.058;5.378;2023-09-19T02:15:46;14.90;99.90
44229;DHT22;29904;51.058;5.378;2023-09-19T02:18:15;14.80;99.90
44229;DHT22;29904;51.058;5.378;2023-09-19T02:20:41;14.80;99.90
44229;DHT22;29904;51.058;5.378;2023-09-19T02:23:07;14.70;99.90
44229;DHT22;29904;51.058;5.378;2023-09-19T02:25:35;14.70;99.90
44229;DHT22;29904;51.058;5.378;2023-09-19T02:28:01;14.70;99.90
44229;DHT22;29904;51.058;5.378;2023-09-19T02:30:28;14.70;99.90
44229;DHT22;29904;51.058;5.378;2023-09-19T02:32:54;14.60;99.90
44229;DHT22;29904;51.058;5.378;2023-09-19T02:35:20;14.60;99.90
44229;DHT22;29904;51.058;5.378;2023-09-19T02:37:46;14.60;99.90
44229;DHT22;29904;51.058;5.378;2023-09-19T02:40:15;14.60;99.90
44229;DHT22;29904;51.058;5.378;2023-09-19T02:42:54;14.60;99.90
44229;DHT22;29904;51.058;5.378;2023-09-19T02:45:24;14.60;99.90
44229;DHT22;29904;51.058;5.378;2023-09-19T02:47:50;14.60;99.90
44229;DHT22;29904;51.058;5.378;2023-09-19T02:50:16;14.60;99.90
44229;DHT22;29904;51.058;5.378;2023-09-19T02:52:43;14.60;99.90
44229;DHT22;29904;51.058;5.378;2023-09-19T02:55:12;14.60;99.90
44229;DHT22;29904;51.058;5.378;2023-09-19T02:57:40;14.60;99.90
44229;DHT22;29904;51.058;5.378;2023-09-19T03:00:09;14.60;99.90
44229;DHT22;29904;51.058;5.378;2023-09-19T03:02:36;14.60;99.90
44229;DHT22;29904;51.058;5.378;2023-09-19T03:05:04;14.60;99.90
44229;DHT22;29904;51.058;5.378;2023-09-19T03:07:29;14.60;99.90
44229;DHT22;29904;51.058;5.378;2023-09-19T03:09:55;14.60;99.90
44229;DHT22;29904;51.058;5.378;2023-09-19T03:12:21;14.60;99.90
44229;DHT22;29904;51.058;5.378;2023-09-19T03:14:49;14.60;99.90
44229;DHT22;29904;51.058;5.378;2023-09-19T03:17:16;14.60;99.90
44229;DHT22;29904;51.058;5.378;2023-09-19T03:19:41;14.60;99.90
44229;DHT22;29904;51.058;5.378;2023-09-19T03:22:09;14.60;99.90
44229;DHT22;29904;51.058;5.378;2023-09-19T03:24:35;14.60;99.90
44229;DHT22;29904;51.058;5.378;2023-09-19T03:27:02;14.60;99.90
44229;DHT22;29904;51.058;5.378;2023-09-19T03:29:31;14.60;99.90
44229;DHT22;29904;51.058;5.378;2023-09-19T03:31:56;14.60;99.90
44229;DHT22;29904;51.058;5.378;2023-09-19T03:34:22;14.70;99.90
44229;DHT22;29904;51.058;5.378;2023-09-19T03:36:48;14.70;99.90
44229;DHT22;29904;51.058;5.378;2023-09-19T03:39:13;14.70;99.90
44229;DHT22;29904;51.058;5.378;2023-09-19T03:41:41;14.70;99.90
44229;DHT22;29904;51.058;5.378;2023-09-19T03:44:07;14.70;99.90
44229;DHT22;29904;51.058;5.378;2023-09-19T03:46:33;14.70;99.90
44229;DHT22;29904;51.058;5.378;2023-09-19T03:49:01;14.80;99.90
44229;DHT22;29904;51.058;5.378;2023-09-19T03:51:28;14.80;99.90
44229;DHT22;29904;51.058;5.378;2023-09-19T03:53:54;14.80;99.90
44229;DHT22;29904;51.058;5.378;2023-09-19T03:56:20;14.90;99.90
44229;DHT22;29904;51.058;5.378;2023-09-19T03:58:46;14.80;99.90
44229;DHT22;29904;51.058;5.378;2023-09-19T04:01:12;14.80;99.90
44229;DHT22;29904;51.058;5.378;2023-09-19T04:03:39;14.90;99.90
44229;DHT22;29904;51.058;5.378;2023-09-19T04:06:25;14.80;99.90
44229;DHT22;29904;51.058;5.378;2023-09-19T04:08:52;14.90;99.90
44229;DHT22;29904;51.058;5.378;2023-09-19T04:11:18;14.90;99.90
44229;DHT22;29904;51.058;5.378;2023-09-19T04:13:44;14.90;99.90
44229;DHT22;29904;51.058;5.378;2023-09-19T04:16:10;15.00;99.90
44229;DHT22;29904;51.058;5.378;2023-09-19T04:18:37;15.00;99.90
44229;DHT22;29904;51.058;5.378;2023-09-19T04:21:05;15.00;99.90
44229;DHT22;29904;51.058;5.378;2023-09-19T04:23:32;15.00;99.90
44229;DHT22;29904;51.058;5.378;2023-09-19T04:25:58;15.00;99.90
44229;DHT22;29904;51.058;5.378;2023-09-19T04:28:24;15.00;99.90
44229;DHT22;29904;51.058;5.378;2023-09-19T04:30:50;15.00;99.90
44229;DHT22;29904;51.058;5.378;2023-09-19T04:33:16;15.00;99.90
44229;DHT22;29904;51.058;5.378;2023-09-19T04:35:42;15.10;99.90
44229;DHT22;29904;51.058;5.378;2023-09-19T04:38:08;15.10;99.90
44229;DHT22;29904;51.058;5.378;2023-09-19T04:40:34;15.10;99.90
44229;DHT22;29904;51.058;5.378;2023-09-19T04:43:00;15.10;99.90
44229;DHT22;29904;51.058;5.378;2023-09-19T04:45:27;15.20;99.90
44229;DHT22;29904;51.058;5.378;2023-09-19T04:47:53;15.20;99.90
44229;DHT22;29904;51.058;5.378;2023-09-19T04:50:20;15.20;99.90
44229;DHT22;29904;51.058;5.378;2023-09-19T04:52:50;15.10;99.90
44229;DHT22;29904;51.058;5.378;2023-09-19T04:55:17;15.10;99.90
44229;DHT22;29904;51.058;5.378;2023-09-19T04:57:48;15.10;99.90
44229;DHT22;29904;51.058;5.378;2023-09-19T05:00:15;15.10;99.90
44229;DHT22;29904;51.058;5.378;2023-09-19T05:02:43;15.10;99.90
44229;DHT22;29904;51.058;5.378;2023-09-19T05:05:09;15.00;99.90
44229;DHT22;29904;51.058;5.378;2023-09-19T05:07:41;15.00;99.90
44229;DHT22;29904;51.058;5.378;2023-09-19T05:10:09;14.90;99.90
44229;DHT22;29904;51.058;5.378;2023-09-19T05:12:35;15.00;99.90
44229;DHT22;29904;51.058;5.378;2023-09-19T05:15:04;15.00;99.90
44229;DHT22;29904;51.058;5.378;2023-09-19T05:17:30;15.00;99.90
44229;DHT22;29904;51.058;5.378;2023-09-19T05:19:57;15.10;99.90
44229;DHT22;29904;51.058;5.378;2023-09-19T05:22:25;15.10;99.90
44229;DHT22;29904;51.058;5.378;2023-09-19T05:24:52;15.10;99.90
44229;DHT22;29904;51.058;5.378;2023-09-19T05:27:19;15.10;99.90
44229;DHT22;29904;51.058;5.378;2023-09-19T05:29:46;15.10;99.90
44229;DHT22;29904;51.058;5.378;2023-09-19T05:32:12;15.10;99.90
44229;DHT22;29904;51.058;5.378;2023-09-19T05:34:38;15.00;99.90
44229;DHT22;29904;51.058;5.378;2023-09-19T05:37:04;15.00;99.90
44229;DHT22;29904;51.058;5.378;2023-09-19T05:39:33;15.00;99.90
44229;DHT22;29904;51.058;5.378;2023-09-19T05:41:59;15.00;99.90
44229;DHT22;29904;51.058;5.378;2023-09-19T05:44:28;15.00;99.90
44229;DHT22;29904;51.058;5.378;2023-09-19T05:46:54;15.00;99.90
44229;DHT22;29904;51.058;5.378;2023-09-19T05:49:22;15.00;99.90
44229;DHT22;29904;51.058;5.378;2023-09-19T05:51:50;14.90;99.90
44229;DHT22;29904;51.058;5.378;2023-09-19T05:54:19;14.90;99.90
44229;DHT22;29904;51.058;5.378;2023-09-19T05:56:45;14.90;99.90
44229;DHT22;29904;51.058;5.378;2023-09-19T05:59:12;14.80;99.90
44229;DHT22;29904;51.058;5.378;2023-09-19T06:01:43;14.80;99.90
44229;DHT22;29904;51.058;5.378;2023-09-19T06:04:09;14.80;99.90
44229;DHT22;29904;51.058;5.378;2023-09-19T06:06:35;14.70;99.90
44229;DHT22;29904;51.058;5.378;2023-09-19T06:09:04;14.70;99.90
44229;DHT22;29904;51.058;5.378;2023-09-19T06:11:37;14.80;99.90
44229;DHT22;29904;51.058;5.378;2023-09-19T06:14:03;14.80;99.90
44229;DHT22;29904;51.058;5.378;2023-09-19T06:16:30;14.90;99.90
44229;DHT22;29904;51.058;5.378;2023-09-19T06:18:57;14.90;99.90
44229;DHT22;29904;51.058;5.378;2023-09-19T06:21:28;15.00;99.90
44229;DHT22;29904;51.058;5.378;2023-09-19T06:23:54;15.00;99.90
44229;DHT22;29904;51.058;5.378;2023-09-19T06:26:22;15.00;99.90
44229;DHT22;29904;51.058;5.378;2023-09-19T06:28:50;15.00;99.90
44229;DHT22;29904;51.058;5.378;2023-09-19T06:31:16;15.00;99.90
44229;DHT22;29904;51.058;5.378;2023-09-19T06:33:42;15.00;99.90
44229;DHT22;29904;51.058;5.378;2023-09-19T06:36:10;15.10;99.90
44229;DHT22;29904;51.058;5.378;2023-09-19T06:38:36;15.10;99.90
44229;DHT22;29904;51.058;5.378;2023-09-19T06:41:05;15.20;99.90
44229;DHT22;29904;51.058;5.378;2023-09-19T06:43:34;15.20;99.90
44229;DHT22;29904;51.058;5.378;2023-09-19T06:46:02;15.30;99.90
44229;DHT22;29904;51.058;5.378;2023-09-19T06:48:29;15.30;99.90
44229;DHT22;29904;51.058;5.378;2023-09-19T06:50:58;15.30;99.90
44229;DHT22;29904;51.058;5.378;2023-09-19T06:53:28;15.40;99.90
44229;DHT22;29904;51.058;5.378;2023-09-19T06:55:57;15.50;99.90
44229;DHT22;29904;51.058;5.378;2023-09-19T06:58:23;15.50;99.90
44229;DHT22;29904;51.058;5.378;2023-09-19T07:00:51;15.60;99.90
44229;DHT22;29904;51.058;5.378;2023-09-19T07:03:16;15.70;99.90
44229;DHT22;29904;51.058;5.378;2023-09-19T07:05:48;15.70;99.90
44229;DHT22;29904;51.058;5.378;2023-09-19T07:08:14;15.80;99.90
44229;DHT22;29904;51.058;5.378;2023-09-19T07:10:42;15.90;99.90
44229;DHT22;29904;51.058;5.378;2023-09-19T07:13:14;15.90;99.90
44229;DHT22;29904;51.058;5.378;2023-09-19T07:15:44;16.00;99.90
44229;DHT22;29904;51.058;5.378;2023-09-19T07:18:16;16.00;99.90
44229;DHT22;29904;51.058;5.378;2023-09-19T07:20:43;16.10;99.90
44229;DHT22;29904;51.058;5.378;2023-09-19T07:23:20;16.10;99.90
44229;DHT22;29904;51.058;5.378;2023-09-19T07:25:48;16.20;99.90
44229;DHT22;29904;51.058;5.378;2023-09-19T07:28:14;16.20;99.90
44229;DHT22;29904;51.058;5.378;2023-09-19T07:30:42;16.20;99.90
44229;DHT22;29904;51.058;5.378;2023-09-19T07:33:08;16.30;99.90
44229;DHT22;29904;51.058;5.378;2023-09-19T07:35:37;16.30;99.90
44229;DHT22;29904;51.058;5.378;2023-09-19T07:38:08;16.30;99.90
44229;DHT22;29904;51.058;5.378;2023-09-19T07:40:33;16.40;99.90
44229;DHT22;29904;51.058;5.378;2023-09-19T07:42:59;16.40;99.90
44229;DHT22;29904;51.058;5.378;2023-09-19T07:45:28;16.40;99.90
44229;DHT22;29904;51.058;5.378;2023-09-19T07:47:57;16.40;99.90
44229;DHT22;29904;51.058;5.378;2023-09-19T07:50:23;16.50;99.90
44229;DHT22;29904;51.058;5.378;2023-09-19T07:52:50;16.50;99.90
44229;DHT22;29904;51.058;5.378;2023-09-19T07:55:19;16.60;99.90
44229;DHT22;29904;51.058;5.378;2023-09-19T07:57:48;16.70;99.90
44229;DHT22;29904;51.058;5.378;2023-09-19T08:00:15;16.80;99.90
44229;DHT22;29904;51.058;5.378;2023-09-19T08:02:43;16.80;99.90
44229;DHT22;29904;51.058;5.378;2023-09-19T08:05:12;17.00;99.90
44229;DHT22;29904;51.058;5.378;2023-09-19T08:07:42;17.00;99.90
44229;DHT22;29904;51.058;5.378;2023-09-19T08:10:08;17.00;99.90
44229;DHT22;29904;51.058;5.378;2023-09-19T08:12:41;17.10;99.90
44229;DHT22;29904;51.058;5.378;2023-09-19T08:15:20;17.20;99.90
44229;DHT22;29904;51.058;5.378;2023-09-19T08:17:48;17.30;99.90
44229;DHT22;29904;51.058;5.378;2023-09-19T08:20:16;17.40;99.90
44229;DHT22;29904;51.058;5.378;2023-09-19T08:25:18;17.40;99.90
44229;DHT22;29904;51.058;5.378;2023-09-19T08:27:47;17.50;99.90
44229;DHT22;29904;51.058;5.378;2023-09-19T08:30:14;17.50;99.90
44229;DHT22;29904;51.058;5.378;2023-09-19T08:32:40;17.60;99.90
44229;DHT22;29904;51.058;5.378;2023-09-19T08:35:08;17.70;99.90
44229;DHT22;29904;51.058;5.378;2023-09-19T08:37:35;17.70;99.90
44229;DHT22;29904;51.058;5.378;2023-09-19T08:40:02;17.70;99.90
44229;DHT22;29904;51.058;5.378;2023-09-19T08:42:28;17.70;99.90
44229;DHT22;29904;51.058;5.378;2023-09-19T08:44:55;17.70;99.90
44229;DHT22;29904;51.058;5.378;2023-09-19T08:47:50;17.70;99.90
44229;DHT22;29904;51.058;5.378;2023-09-19T08:50:26;17.70;99.90
44229;DHT22;29904;51.058;5.378;2023-09-19T08:52:55;17.70;99.90
44229;DHT22;29904;51.058;5.378;2023-09-19T08:55:27;17.60;99.90
44229;DHT22;29904;51.058;5.378;2023-09-19T08:58:02;17.60;99.90
44229;DHT22;29904;51.058;5.378;2023-09-19T09:00:28;17.60;99.90
44229;DHT22;29904;51.058;5.378;2023-09-19T09:02:56;17.70;99.90
44229;DHT22;29904;51.058;5.378;2023-09-19T09:05:25;17.70;99.90
44229;DHT22;29904;51.058;5.378;2023-09-19T09:07:52;17.60;99.90
44229;DHT22;29904;51.058;5.378;2023-09-19T09:10:18;17.70;99.90
44229;DHT22;29904;51.058;5.378;2023-09-19T09:12:53;17.80;99.90
44229;DHT22;29904;51.058;5.378;2023-09-19T09:15:22;17.90;99.90
44229;DHT22;29904;51.058;5.378;2023-09-19T09:17:49;18.00;99.90
44229;DHT22;29904;51.058;5.378;2023-09-19T09:20:17;18.10;99.90
44229;DHT22;29904;51.058;5.378;2023-09-19T09:22:57;18.20;99.90
44229;DHT22;29904;51.058;5.378;2023-09-19T09:25:48;18.40;99.90
44229;DHT22;29904;51.058;5.378;2023-09-19T09:28:20;18.50;99.90
44229;DHT22;29904;51.058;5.378;2023-09-19T09:30:46;18.70;99.90
44229;DHT22;29904;51.058;5.378;2023-09-19T09:33:13;18.80;99.90
44229;DHT22;29904;51.058;5.378;2023-09-19T09:38:25;18.90;99.90
44229;DHT22;29904;51.058;5.378;2023-09-19T09:40:55;18.80;99.90
44229;DHT22;29904;51.058;5.378;2023-09-19T09:43:31;18.90;99.90
44229;DHT22;29904;51.058;5.378;2023-09-19T09:46:11;18.90;99.90
44229;DHT22;29904;51.058;5.378;2023-09-19T09:49:02;18.90;99.90
44229;DHT22;29904;51.058;5.378;2023-09-19T09:51:58;18.90;99.90
44229;DHT22;29904;51.058;5.378;2023-09-19T09:54:28;19.10;99.90
44229;DHT22;29904;51.058;5.378;2023-09-19T09:57:12;19.20;99.90
44229;DHT22;29904;51.058;5.378;2023-09-19T09:59:56;19.10;99.90
44229;DHT22;29904;51.058;5.378;2023-09-19T10:02:39;19.10;99.90
44229;DHT22;29904;51.058;5.378;2023-09-19T10:05:14;19.20;99.90
44229;DHT22;29904;51.058;5.378;2023-09-19T10:07:50;19.30;99.90
44229;DHT22;29904;51.058;5.378;2023-09-19T10:10:38;19.30;99.90
44229;DHT22;29904;51.058;5.378;2023-09-19T10:13:09;19.30;99.90
44229;DHT22;29904;51.058;5.378;2023-09-19T10:15:39;19.30;99.90
44229;DHT22;29904;51.058;5.378;2023-09-19T10:18:14;19.20;99.90
44229;DHT22;29904;51.058;5.378;2023-09-19T10:20:45;19.10;99.90
44229;DHT22;29904;51.058;5.378;2023-09-19T10:23:13;19.20;99.90
44229;DHT22;29904;51.058;5.378;2023-09-19T10:25:44;19.10;99.90
44229;DHT22;29904;51.058;5.378;2023-09-19T10:28:15;19.30;99.90
44229;DHT22;29904;51.058;5.378;2023-09-19T10:30:45;19.40;99.90
44229;DHT22;29904;51.058;5.378;2023-09-19T10:33:23;19.40;99.90
44229;DHT22;29904;51.058;5.378;2023-09-19T10:35:58;19.40;99.90
44229;DHT22;29904;51.058;5.378;2023-09-19T10:38:26;19.40;99.90
44229;DHT22;29904;51.058;5.378;2023-09-19T10:40:55;19.40;99.90
44229;DHT22;29904;51.058;5.378;2023-09-19T10:43:30;19.50;99.90
44229;DHT22;29904;51.058;5.378;2023-09-19T10:46:01;19.50;99.90
44229;DHT22;29904;51.058;5.378;2023-09-19T10:48:31;19.50;99.90
44229;DHT22;29904;51.058;5.378;2023-09-19T10:53:54;19.70;99.90
44229;DHT22;29904;51.058;5.378;2023-09-19T10:56:25;19.80;99.90
44229;DHT22;29904;51.058;5.378;2023-09-19T10:59:06;19.90;99.90
44229;DHT22;29904;51.058;5.378;2023-09-19T11:01:59;20.00;99.90
44229;DHT22;29904;51.058;5.378;2023-09-19T11:04:31;20.30;99.90
44229;DHT22;29904;51.058;5.378;2023-09-19T11:07:13;20.40;99.90
44229;DHT22;29904;51.058;5.378;2023-09-19T11:09:44;20.50;99.90
44229;DHT22;29904;51.058;5.378;2023-09-19T11:15:07;20.50;99.90
44229;DHT22;29904;51.058;5.378;2023-09-19T11:17:38;20.70;99.90
44229;DHT22;29904;51.058;5.378;2023-09-19T11:25:44;20.90;99.90
44229;DHT22;29904;51.058;5.378;2023-09-19T11:30:45;21.20;99.90
44229;DHT22;29904;51.058;5.378;2023-09-19T11:33:17;21.40;99.90
44229;DHT22;29904;51.058;5.378;2023-09-19T11:46:55;21.40;99.90
44229;DHT22;29904;51.058;5.378;2023-09-19T11:49:28;21.50;99.90
44229;DHT22;29904;51.058;5.378;2023-09-19T11:51:56;21.30;99.90
44229;DHT22;29904;51.058;5.378;2023-09-19T11:54:21;21.20;99.90
44229;DHT22;29904;51.058;5.378;2023-09-19T11:56:54;21.30;99.90
44229;DHT22;29904;51.058;5.378;2023-09-19T11:59:23;21.30;99.90
44229;DHT22;29904;51.058;5.378;2023-09-19T12:01:53;21.50;99.90
44229;DHT22;29904;51.058;5.378;2023-09-19T12:04:40;21.80;99.90
44229;DHT22;29904;51.058;5.378;2023-09-19T12:07:16;21.80;99.90
44229;DHT22;29904;51.058;5.378;2023-09-19T12:09:47;21.90;99.90
44229;DHT22;29904;51.058;5.378;2023-09-19T12:12:20;21.80;99.90
44229;DHT22;29904;51.058;5.378;2023-09-19T12:14:50;21.80;99.90
44229;DHT22;29904;51.058;5.378;2023-09-19T12:17:17;21.70;99.90
44229;DHT22;29904;51.058;5.378;2023-09-19T12:19:56;21.70;99.90
44229;DHT22;29904;51.058;5.378;2023-09-19T12:22:22;21.80;99.90
44229;DHT22;29904;51.058;5.378;2023-09-19T12:24:48;21.80;99.90
44229;DHT22;29904;51.058;5.378;2023-09-19T12:27:14;21.90;99.90
44229;DHT22;29904;51.058;5.378;2023-09-19T12:32:09;21.80;99.90
44229;DHT22;29904;51.058;5.378;2023-09-19T12:34:36;21.80;99.90
44229;DHT22;29904;51.058;5.378;2023-09-19T12:39:50;21.70;99.90
44229;DHT22;29904;51.058;5.378;2023-09-19T12:42:19;21.90;99.90
44229;DHT22;29904;51.058;5.378;2023-09-19T12:44:47;22.00;99.90
44229;DHT22;29904;51.058;5.378;2023-09-19T12:47:19;22.10;99.90
44229;DHT22;29904;51.058;5.378;2023-09-19T12:50:11;21.90;99.90
44229;DHT22;29904;51.058;5.378;2023-09-19T12:52:53;21.70;99.90
44229;DHT22;29904;51.058;5.378;2023-09-19T12:55:27;21.60;99.90
44229;DHT22;29904;51.058;5.378;2023-09-19T13:00:37;21.20;99.90
44229;DHT22;29904;51.058;5.378;2023-09-19T13:03:26;21.00;99.90
44229;DHT22;29904;51.058;5.378;2023-09-19T13:05:55;21.00;99.90
44229;DHT22;29904;51.058;5.378;2023-09-19T13:08:30;20.90;99.90
44229;DHT22;29904;51.058;5.378;2023-09-19T13:11:05;21.10;99.90
44229;DHT22;29904;51.058;5.378;2023-09-19T13:13:51;21.10;99.90
44229;DHT22;29904;51.058;5.378;2023-09-19T13:16:21;21.10;99.90
44229;DHT22;29904;51.058;5.378;2023-09-19T13:18:53;21.00;99.90
44229;DHT22;29904;51.058;5.378;2023-09-19T13:21:34;21.10;99.90
44229;DHT22;29904;51.058;5.378;2023-09-19T13:24:23;21.20;99.90
44229;DHT22;29904;51.058;5.378;2023-09-19T13:26:52;21.30;99.90
44229;DHT22;29904;51.058;5.378;2023-09-19T13:29:18;21.40;99.90
44229;DHT22;29904;51.058;5.378;2023-09-19T13:31:52;21.50;99.90
44229;DHT22;29904;51.058;5.378;2023-09-19T13:34:20;21.50;99.90
44229;DHT22;29904;51.058;5.378;2023-09-19T13:36:47;21.60;99.90
44229;DHT22;29904;51.058;5.378;2023-09-19T13:39:16;21.40;99.90
44229;DHT22;29904;51.058;5.378;2023-09-19T13:41:44;21.30;99.90
44229;DHT22;29904;51.058;5.378;2023-09-19T13:44:10;21.20;99.90
44229;DHT22;29904;51.058;5.378;2023-09-19T13:46:38;21.10;99.90
44229;DHT22;29904;51.058;5.378;2023-09-19T13:49:04;21.00;99.90
44229;DHT22;29904;51.058;5.378;2023-09-19T13:51:33;20.80;99.90
44229;DHT22;29904;51.058;5.378;2023-09-19T13:53:58;20.60;99.90
44229;DHT22;29904;51.058;5.378;2023-09-19T13:56:27;20.60;99.90
44229;DHT22;29904;51.058;5.378;2023-09-19T13:58:54;20.50;99.90
44229;DHT22;29904;51.058;5.378;2023-09-19T14:01:20;20.50;99.90
44229;DHT22;29904;51.058;5.378;2023-09-19T14:03:46;20.50;99.90
44229;DHT22;29904;51.058;5.378;2023-09-19T14:06:17;20.50;99.90
44229;DHT22;29904;51.058;5.378;2023-09-19T14:08:44;20.50;99.90
44229;DHT22;29904;51.058;5.378;2023-09-19T14:11:15;20.40;99.90
44229;DHT22;29904;51.058;5.378;2023-09-19T14:13:42;20.40;99.90
44229;DHT22;29904;51.058;5.378;2023-09-19T14:16:12;20.30;99.90
44229;DHT22;29904;51.058;5.378;2023-09-19T14:18:38;20.40;99.90
44229;DHT22;29904;51.058;5.378;2023-09-19T14:21:04;20.30;99.90
44229;DHT22;29904;51.058;5.378;2023-09-19T14:23:39;20.30;99.90
44229;DHT22;29904;51.058;5.378;2023-09-19T14:26:09;20.30;99.90
44229;DHT22;29904;51.058;5.378;2023-09-19T14:28:35;20.20;99.90
44229;DHT22;29904;51.058;5.378;2023-09-19T14:31:09;20.20;99.90
44229;DHT22;29904;51.058;5.378;2023-09-19T14:33:35;20.30;99.90
44229;DHT22;29904;51.058;5.378;2023-09-19T14:36:08;20.40;99.90
44229;DHT22;29904;51.058;5.378;2023-09-19T14:38:36;20.40;99.90
44229;DHT22;29904;51.058;5.378;2023-09-19T14:41:04;20.40;99.90
44229;DHT22;29904;51.058;5.378;2023-09-19T14:43:32;20.40;99.90
44229;DHT22;29904;51.058;5.378;2023-09-19T14:46:04;20.40;99.90
44229;DHT22;29904;51.058;5.378;2023-09-19T14:48:30;20.50;99.90
44229;DHT22;29904;51.058;5.378;2023-09-19T14:51:02;20.50;99.90
44229;DHT22;29904;51.058;5.378;2023-09-19T14:53:28;20.60;99.90
44229;DHT22;29904;51.058;5.378;2023-09-19T14:55:54;20.60;99.90
44229;DHT22;29904;51.058;5.378;2023-09-19T14:58:20;20.70;99.90
44229;DHT22;29904;51.058;5.378;2023-09-19T15:00:47;20.80;99.90
44229;DHT22;29904;51.058;5.378;2023-09-19T15:03:13;20.80;99.90
44229;DHT22;29904;51.058;5.378;2023-09-19T15:05:41;20.80;99.90
44229;DHT22;29904;51.058;5.378;2023-09-19T15:08:09;20.80;99.90
44229;DHT22;29904;51.058;5.378;2023-09-19T15:10:34;20.70;99.90
44229;DHT22;29904;51.058;5.378;2023-09-19T15:13:00;20.70;99.90
44229;DHT22;29904;51.058;5.378;2023-09-19T15:15:26;20.70;99.90
44229;DHT22;29904;51.058;5.378;2023-09-19T15:17:51;20.70;99.90
44229;DHT22;29904;51.058;5.378;2023-09-19T15:20:19;20.50;99.90
44229;DHT22;29904;51.058;5.378;2023-09-19T15:22:45;20.40;99.90
44229;DHT22;29904;51.058;5.378;2023-09-19T15:25:11;20.40;99.90
44229;DHT22;29904;51.058;5.378;2023-09-19T15:27:39;20.50;99.90
44229;DHT22;29904;51.058;5.378;2023-09-19T15:30:08;20.50;99.90
44229;DHT22;29904;51.058;5.378;2023-09-19T15:32:33;20.50;99.90
44229;DHT22;29904;51.058;5.378;2023-09-19T15:34:59;20.60;99.90
44229;DHT22;29904;51.058;5.378;2023-09-19T15:37:26;20.60;99.90
44229;DHT22;29904;51.058;5.378;2023-09-19T15:39:52;20.50;99.90
44229;DHT22;29904;51.058;5.378;2023-09-19T15:42:18;20.40;99.90
44229;DHT22;29904;51.058;5.378;2023-09-19T15:44:44;20.30;99.90
44229;DHT22;29904;51.058;5.378;2023-09-19T15:47:12;20.20;99.90
44229;DHT22;29904;51.058;5.378;2023-09-19T15:49:38;20.10;99.90
44229;DHT22;29904;51.058;5.378;2023-09-19T15:52:06;20.10;99.90
44229;DHT22;29904;51.058;5.378;2023-09-19T15:54:33;20.20;99.90
44229;DHT22;29904;51.058;5.378;2023-09-19T15:57:00;20.20;99.90
44229;DHT22;29904;51.058;5.378;2023-09-19T15:59:27;20.20;99.90
44229;DHT22;29904;51.058;5.378;2023-09-19T16:01:55;20.10;99.90
44229;DHT22;29904;51.058;5.378;2023-09-19T16:04:21;20.10;99.90
44229;DHT22;29904;51.058;5.378;2023-09-19T16:06:46;20.10;99.90
44229;DHT22;29904;51.058;5.378;2023-09-19T16:09:12;20.10;99.90
44229;DHT22;29904;51.058;5.378;2023-09-19T16:11:40;20.00;99.90
44229;DHT22;29904;51.058;5.378;2023-09-19T16:14:07;19.90;99.90
44229;DHT22;29904;51.058;5.378;2023-09-19T16:16:35;19.90;99.90
44229;DHT22;29904;51.058;5.378;2023-09-19T16:19:02;19.80;99.90
44229;DHT22;29904;51.058;5.378;2023-09-19T16:21:31;19.80;99.90
44229;DHT22;29904;51.058;5.378;2023-09-19T16:23:57;19.70;99.90
44229;DHT22;29904;51.058;5.378;2023-09-19T16:26:24;19.60;99.90
44229;DHT22;29904;51.058;5.378;2023-09-19T16:28:52;19.60;99.90
44229;DHT22;29904;51.058;5.378;2023-09-19T16:31:18;19.60;99.90
44229;DHT22;29904;51.058;5.378;2023-09-19T16:33:46;19.50;99.90
44229;DHT22;29904;51.058;5.378;2023-09-19T16:36:15;19.50;99.90
44229;DHT22;29904;51.058;5.378;2023-09-19T16:38:43;19.50;99.90
44229;DHT22;29904;51.058;5.378;2023-09-19T16:41:09;19.40;99.90